Time;durP1;ratioP1;P1;durP2;ratioP2;P2;SDS_P1;SDS_P2;PMS_P1;PMS_P2;Temp;Humidity;BMP_temperature;BMP_pressure;BME280_temperature;BME280_humidity;BME280_pressure;Samples;Min_cycle;Max_cycle;Signal;HPM_P1;HPM_P2
2023/07/18 00:01:58;;;;;;;;;;;20.30;86.50;;;;;;5014203;28;19918;-79
2023/07/18 00:04:25;;;;;;;;;;;20.30;86.40;;;;;;5017612;28;19917;-81
2023/07/18 00:06:51;;;;;;;;;;;20.30;86.80;;;;;;5016342;28;19913;-78
2023/07/18 00:09:16;;;;;;;;;;;20.30;86.90;;;;;;5001377;28;19928;-79
2023/07/18 00:11:42;;;;;;;;;;;20.30;86.80;;;;;;5019772;28;19983;-80
2023/07/18 00:14:08;;;;;;;;;;;20.30;86.90;;;;;;5017905;28;19968;-79
2023/07/18 00:16:33;;;;;;;;;;;20.30;86.60;;;;;;5019460;28;19948;-79
2023/07/18 00:18:59;;;;;;;;;;;20.20;87.00;;;;;;5005022;28;19917;-78
2023/07/18 00:21:25;;;;;;;;;;;20.20;87.50;;;;;;5009572;28;19920;-78
2023/07/18 00:23:50;;;;;;;;;;;20.20;87.50;;;;;;5025448;28;19913;-78
2023/07/18 00:26:16;;;;;;;;;;;20.20;87.90;;;;;;5025790;28;19913;-79
2023/07/18 00:28:41;;;;;;;;;;;20.20;87.90;;;;;;5026028;28;20007;-79
2023/07/18 00:31:07;;;;;;;;;;;20.20;87.70;;;;;;5025040;28;20010;-79
2023/07/18 00:33:32;;;;;;;;;;;20.20;87.40;;;;;;5023966;28;20022;-79
2023/07/18 00:36:00;;;;;;;;;;;20.20;87.60;;;;;;5021202;28;20015;-77
2023/07/18 00:38:26;;;;;;;;;;;20.20;87.60;;;;;;5022694;28;19913;-78
2023/07/18 00:40:51;;;;;;;;;;;20.30;87.30;;;;;;5025774;28;19948;-80
2023/07/18 00:43:17;;;;;;;;;;;20.20;87.50;;;;;;5034699;28;19955;-82
2023/07/18 00:45:43;;;;;;;;;;;20.20;87.70;;;;;;5025738;28;20051;-81
2023/07/18 00:48:09;;;;;;;;;;;20.10;88.50;;;;;;5032953;28;19917;-79
2023/07/18 00:50:35;;;;;;;;;;;20.20;88.10;;;;;;5025558;28;20384;-78
2023/07/18 00:53:00;;;;;;;;;;;20.20;87.70;;;;;;5025460;28;20012;-81
2023/07/18 00:55:27;;;;;;;;;;;20.20;87.80;;;;;;5025333;28;20008;-78
2023/07/18 00:57:53;;;;;;;;;;;20.20;88.00;;;;;;5007641;28;20315;-79
2023/07/18 01:00:22;;;;;;;;;;;20.10;88.50;;;;;;5025416;28;19919;-78
2023/07/18 01:02:48;;;;;;;;;;;20.00;88.80;;;;;;5021390;28;20051;-80
2023/07/18 01:05:16;;;;;;;;;;;20.10;88.70;;;;;;5008280;28;19965;-80
2023/07/18 01:07:42;;;;;;;;;;;20.10;88.90;;;;;;5001253;28;20031;-80
2023/07/18 01:10:25;;;;;;;;;;;19.90;89.60;;;;;;5025069;28;20026;-79
2023/07/18 01:12:54;;;;;;;;;;;19.90;89.30;;;;;;5025772;28;19917;-78
2023/07/18 01:15:20;;;;;;;;;;;20.00;88.90;;;;;;5025373;28;20428;-81
2023/07/18 01:17:46;;;;;;;;;;;20.10;88.40;;;;;;5026097;28;20681;-80
2023/07/18 01:20:19;;;;;;;;;;;20.00;88.70;;;;;;5024640;28;20464;-81
2023/07/18 01:22:45;;;;;;;;;;;20.00;88.80;;;;;;5025107;28;20498;-80
2023/07/18 01:25:16;;;;;;;;;;;19.80;89.70;;;;;;5025353;28;19956;-79
2023/07/18 01:27:43;;;;;;;;;;;19.80;90.10;;;;;;5006443;28;19913;-79
2023/07/18 01:30:09;;;;;;;;;;;19.60;90.60;;;;;;5024046;28;19938;-79
2023/07/18 01:32:35;;;;;;;;;;;19.60;90.50;;;;;;5003043;28;19916;-81
2023/07/18 01:35:02;;;;;;;;;;;19.70;90.20;;;;;;5002943;28;20685;-78
2023/07/18 01:37:28;;;;;;;;;;;19.70;90.10;;;;;;5018673;28;19923;-79
2023/07/18 01:39:53;;;;;;;;;;;19.70;90.30;;;;;;5017761;28;19917;-78
2023/07/18 01:42:19;;;;;;;;;;;19.70;90.50;;;;;;5020021;28;20571;-78
2023/07/18 01:44:44;;;;;;;;;;;19.60;90.60;;;;;;5025996;28;20728;-79
2023/07/18 01:47:10;;;;;;;;;;;19.60;90.60;;;;;;5018136;28;20615;-80
2023/07/18 01:49:36;;;;;;;;;;;19.60;90.70;;;;;;5017101;28;20711;-79
2023/07/18 01:52:03;;;;;;;;;;;19.60;90.60;;;;;;5015524;28;19980;-80
2023/07/18 01:54:29;;;;;;;;;;;19.60;90.70;;;;;;5010878;28;19940;-79
2023/07/18 01:56:54;;;;;;;;;;;19.50;90.80;;;;;;5014665;28;19913;-79
2023/07/18 01:59:21;;;;;;;;;;;19.50;90.80;;;;;;5024070;28;19916;-80
2023/07/18 02:01:47;;;;;;;;;;;19.60;90.70;;;;;;5010872;28;19951;-83
2023/07/18 02:04:13;;;;;;;;;;;19.60;90.80;;;;;;4997758;28;21011;-80
2023/07/18 02:06:39;;;;;;;;;;;19.50;91.10;;;;;;5023904;28;20372;-78
2023/07/18 02:09:05;;;;;;;;;;;19.50;91.30;;;;;;5015595;28;19928;-78
2023/07/18 02:11:30;;;;;;;;;;;19.50;91.40;;;;;;5033537;28;19913;-79
2023/07/18 02:13:56;;;;;;;;;;;19.50;91.50;;;;;;5023786;28;19984;-78
2023/07/18 02:16:21;;;;;;;;;;;19.60;91.20;;;;;;5006058;28;19924;-80
2023/07/18 02:18:47;;;;;;;;;;;19.60;91.30;;;;;;5024150;28;19922;-82
2023/07/18 02:21:13;;;;;;;;;;;19.50;91.30;;;;;;5032907;28;19913;-80
2023/07/18 02:23:39;;;;;;;;;;;19.50;91.60;;;;;;5029114;28;19920;-79
2023/07/18 02:26:04;;;;;;;;;;;19.50;91.60;;;;;;5022435;28;20352;-79
2023/07/18 02:28:30;;;;;;;;;;;19.50;91.60;;;;;;5021736;28;20689;-79
2023/07/18 02:30:56;;;;;;;;;;;19.50;91.80;;;;;;5004171;28;19920;-79
2023/07/18 02:33:21;;;;;;;;;;;19.50;91.50;;;;;;5022014;28;20414;-80
2023/07/18 02:35:47;;;;;;;;;;;19.40;91.70;;;;;;5019969;28;20343;-81
2023/07/18 02:38:13;;;;;;;;;;;19.40;91.70;;;;;;5019851;28;19944;-79
2023/07/18 02:40:41;;;;;;;;;;;19.40;91.60;;;;;;5019292;28;20006;-79
2023/07/18 02:43:06;;;;;;;;;;;19.40;91.50;;;;;;5017289;28;19921;-81
2023/07/18 02:45:32;;;;;;;;;;;19.40;91.80;;;;;;5020656;28;19917;-81
2023/07/18 02:47:57;;;;;;;;;;;19.30;92.10;;;;;;5019261;28;19925;-80
2023/07/18 02:50:23;;;;;;;;;;;19.20;92.40;;;;;;5021679;28;19929;-80
2023/07/18 02:52:49;;;;;;;;;;;19.10;92.50;;;;;;5019379;28;20305;-78
2023/07/18 02:55:15;;;;;;;;;;;19.20;92.20;;;;;;5023938;28;19966;-79
2023/07/18 02:57:40;;;;;;;;;;;19.20;92.00;;;;;;5006138;28;20327;-81
2023/07/18 03:00:17;;;;;;;;;;;19.20;92.10;;;;;;5020232;28;19913;-78
2023/07/18 03:02:45;;;;;;;;;;;19.20;92.00;;;;;;5023638;28;20054;-79
2023/07/18 03:05:11;;;;;;;;;;;19.20;92.00;;;;;;5023178;28;19913;-79
2023/07/18 03:07:37;;;;;;;;;;;19.20;92.00;;;;;;5023266;28;19913;-79
2023/07/18 03:10:04;;;;;;;;;;;19.20;91.90;;;;;;5004652;28;19921;-80
2023/07/18 03:12:30;;;;;;;;;;;19.10;92.00;;;;;;5015612;28;19917;-81
2023/07/18 03:14:55;;;;;;;;;;;19.20;91.80;;;;;;5023059;28;19958;-80
2023/07/18 03:17:22;;;;;;;;;;;19.10;91.80;;;;;;5023505;28;20013;-78
2023/07/18 03:19:48;;;;;;;;;;;19.20;91.50;;;;;;5022894;28;19920;-82
2023/07/18 03:22:14;;;;;;;;;;;19.10;91.70;;;;;;5022749;28;20433;-79
2023/07/18 03:24:40;;;;;;;;;;;19.10;91.80;;;;;;5035493;28;19917;-82
2023/07/18 03:27:06;;;;;;;;;;;19.20;91.50;;;;;;5022564;28;19958;-78
2023/07/18 03:29:31;;;;;;;;;;;19.20;91.50;;;;;;5021648;28;19979;-81
2023/07/18 03:31:59;;;;;;;;;;;19.10;91.70;;;;;;5023096;28;19913;-79
2023/07/18 03:34:24;;;;;;;;;;;19.10;91.80;;;;;;5019275;28;19961;-79
2023/07/18 03:36:50;;;;;;;;;;;19.10;91.80;;;;;;5002318;28;20451;-83
2023/07/18 03:39:16;;;;;;;;;;;19.10;91.70;;;;;;4999013;28;19920;-79
2023/07/18 03:41:42;;;;;;;;;;;19.10;91.70;;;;;;5019449;28;19994;-78
2023/07/18 03:44:08;;;;;;;;;;;19.10;91.70;;;;;;5015305;28;19913;-79
2023/07/18 03:46:34;;;;;;;;;;;19.10;91.80;;;;;;4999771;28;19921;-80
2023/07/18 03:48:59;;;;;;;;;;;19.00;92.30;;;;;;5014588;28;19991;-78
2023/07/18 03:51:25;;;;;;;;;;;18.90;92.40;;;;;;5002127;28;20415;-78
2023/07/18 03:53:51;;;;;;;;;;;18.90;92.50;;;;;;5015017;28;19964;-80
2023/07/18 03:56:16;;;;;;;;;;;19.00;92.40;;;;;;4998584;28;19967;-78
2023/07/18 03:58:42;;;;;;;;;;;19.00;92.50;;;;;;5022934;28;19914;-79
2023/07/18 04:01:08;;;;;;;;;;;19.00;92.50;;;;;;4995029;28;19913;-80
2023/07/18 04:03:34;;;;;;;;;;;18.90;92.80;;;;;;5014708;28;20419;-80
2023/07/18 04:06:00;;;;;;;;;;;18.90;93.00;;;;;;4992445;28;19913;-81
2023/07/18 04:08:27;;;;;;;;;;;18.90;92.70;;;;;;5013524;28;20407;-82
2023/07/18 04:10:53;;;;;;;;;;;19.10;92.50;;;;;;5009288;28;19921;-78
2023/07/18 04:13:19;;;;;;;;;;;19.10;92.40;;;;;;5010908;28;19968;-79
2023/07/18 04:15:44;;;;;;;;;;;19.00;92.50;;;;;;5018037;28;19917;-80
2023/07/18 04:18:10;;;;;;;;;;;19.10;92.40;;;;;;5026088;28;19967;-79
2023/07/18 04:20:35;;;;;;;;;;;19.10;92.50;;;;;;5026120;28;19920;-81
2023/07/18 04:23:01;;;;;;;;;;;19.10;92.50;;;;;;5024615;28;19920;-77
2023/07/18 04:25:29;;;;;;;;;;;19.10;92.40;;;;;;5025655;28;19921;-82
2023/07/18 04:27:55;;;;;;;;;;;19.10;92.30;;;;;;5023851;28;19925;-79
2023/07/18 04:30:20;;;;;;;;;;;19.10;92.40;;;;;;5025887;28;19921;-80
2023/07/18 04:32:46;;;;;;;;;;;19.10;92.40;;;;;;5024254;28;19963;-78
2023/07/18 04:35:12;;;;;;;;;;;19.10;92.70;;;;;;5015320;28;19913;-82
2023/07/18 04:37:37;;;;;;;;;;;19.00;92.30;;;;;;5021920;28;19943;-79
2023/07/18 04:40:08;;;;;;;;;;;19.20;92.10;;;;;;5023767;28;20626;-79
2023/07/18 04:42:34;;;;;;;;;;;19.30;91.90;;;;;;5020517;28;20370;-79
2023/07/18 04:45:00;;;;;;;;;;;19.40;91.60;;;;;;5022420;28;19923;-79
2023/07/18 04:47:26;;;;;;;;;;;19.60;91.30;;;;;;5019835;28;20531;-84
2023/07/18 04:49:51;;;;;;;;;;;19.50;91.60;;;;;;5020297;28;20028;-80
2023/07/18 04:52:19;;;;;;;;;;;19.60;91.40;;;;;;5024171;28;20468;-79
2023/07/18 04:54:44;;;;;;;;;;;19.80;90.90;;;;;;5002042;28;19924;-81
2023/07/18 04:57:10;;;;;;;;;;;19.90;90.40;;;;;;4997618;28;19947;-79
2023/07/18 04:59:35;;;;;;;;;;;20.10;90.20;;;;;;5022039;28;19959;-81
2023/07/18 05:02:01;;;;;;;;;;;20.10;90.30;;;;;;5013832;28;20004;-79
2023/07/18 05:04:27;;;;;;;;;;;20.10;90.30;;;;;;5011452;28;20368;-80
2023/07/18 05:06:52;;;;;;;;;;;20.20;89.90;;;;;;5011544;28;19920;-82
2023/07/18 05:09:18;;;;;;;;;;;20.30;90.00;;;;;;5008440;28;20435;-79
2023/07/18 05:11:43;;;;;;;;;;;20.50;88.60;;;;;;5010952;28;19913;-78
2023/07/18 05:14:09;;;;;;;;;;;20.70;87.40;;;;;;5007298;28;19909;-81
2023/07/18 05:16:34;;;;;;;;;;;20.90;86.70;;;;;;5010965;28;19920;-80
2023/07/18 05:19:00;;;;;;;;;;;21.00;85.80;;;;;;5023519;28;19940;-81
2023/07/18 05:21:26;;;;;;;;;;;21.10;85.00;;;;;;5023456;28;19920;-80
2023/07/18 05:23:51;;;;;;;;;;;21.40;83.90;;;;;;5024897;28;19955;-78
2023/07/18 05:26:17;;;;;;;;;;;21.60;82.90;;;;;;5023992;28;19967;-80
2023/07/18 05:28:42;;;;;;;;;;;21.90;81.60;;;;;;5011006;28;19913;-83
2023/07/18 05:31:08;;;;;;;;;;;22.20;80.90;;;;;;4993690;28;19929;-80
2023/07/18 05:33:34;;;;;;;;;;;22.40;80.40;;;;;;5012189;28;19918;-80
2023/07/18 05:35:59;;;;;;;;;;;22.50;80.90;;;;;;5010552;28;20104;-78
2023/07/18 05:38:25;;;;;;;;;;;23.00;79.60;;;;;;5011576;28;19953;-79
2023/07/18 05:40:50;;;;;;;;;;;23.50;77.70;;;;;;4993693;28;19959;-81
2023/07/18 05:43:18;;;;;;;;;;;23.50;75.80;;;;;;5014802;28;19913;-80
2023/07/18 05:45:44;;;;;;;;;;;23.60;75.60;;;;;;5013666;28;19917;-80
2023/07/18 05:48:09;;;;;;;;;;;23.50;75.50;;;;;;5014101;28;19917;-79
2023/07/18 05:50:35;;;;;;;;;;;23.50;75.90;;;;;;5012315;28;19933;-78
2023/07/18 05:53:01;;;;;;;;;;;23.00;76.20;;;;;;5021448;28;19932;-82
2023/07/18 05:55:27;;;;;;;;;;;23.10;76.30;;;;;;5022965;28;19913;-79
2023/07/18 05:57:53;;;;;;;;;;;23.50;74.30;;;;;;5023560;28;19920;-79
2023/07/18 06:00:19;;;;;;;;;;;22.50;77.90;;;;;;4996994;28;19913;-79
2023/07/18 06:02:47;;;;;;;;;;;22.00;79.80;;;;;;5013038;28;19921;-80
2023/07/18 06:05:13;;;;;;;;;;;21.80;80.90;;;;;;5016310;28;19983;-77
2023/07/18 06:07:39;;;;;;;;;;;21.90;80.30;;;;;;5022298;28;19913;-78
2023/07/18 06:10:05;;;;;;;;;;;22.30;80.00;;;;;;5013228;28;20747;-78
2023/07/18 06:12:30;;;;;;;;;;;24.00;73.80;;;;;;5009931;28;19953;-81
2023/07/18 06:14:56;;;;;;;;;;;23.60;73.60;;;;;;5014444;28;19913;-78
2023/07/18 06:17:22;;;;;;;;;;;22.90;77.40;;;;;;5022821;28;19925;-79
2023/07/18 06:19:47;;;;;;;;;;;22.50;79.00;;;;;;5022979;28;19935;-80
2023/07/18 06:22:13;;;;;;;;;;;23.80;75.30;;;;;;5023741;28;19913;-79
2023/07/18 06:24:38;;;;;;;;;;;25.70;69.90;;;;;;5021289;28;19983;-78
2023/07/18 06:27:05;;;;;;;;;;;25.00;68.80;;;;;;5020338;28;19917;-77
2023/07/18 06:29:30;;;;;;;;;;;23.90;73.30;;;;;;5022317;28;19925;-79
2023/07/18 06:31:56;;;;;;;;;;;23.50;76.60;;;;;;5023108;28;19913;-79
2023/07/18 06:34:22;;;;;;;;;;;25.20;72.10;;;;;;5023629;28;19963;-79
2023/07/18 06:36:47;;;;;;;;;;;26.70;65.80;;;;;;5002840;28;19939;-81
2023/07/18 06:39:13;;;;;;;;;;;26.60;63.80;;;;;;5027062;28;19916;-78
2023/07/18 06:41:39;;;;;;;;;;;28.00;63.40;;;;;;5023209;28;19941;-79
2023/07/18 06:44:05;;;;;;;;;;;27.80;62.50;;;;;;5023256;28;19963;-79
2023/07/18 06:46:31;;;;;;;;;;;27.30;63.30;;;;;;5023597;28;19921;-79
2023/07/18 06:48:56;;;;;;;;;;;25.30;68.40;;;;;;5023629;28;19952;-79
2023/07/18 06:51:25;;;;;;;;;;;24.60;70.90;;;;;;4996263;28;19937;-79
2023/07/18 06:53:52;;;;;;;;;;;24.60;72.40;;;;;;4994272;28;20728;-80
2023/07/18 06:56:17;;;;;;;;;;;27.50;65.90;;;;;;4991105;28;20491;-81
2023/07/18 06:58:43;;;;;;;;;;;28.90;60.90;;;;;;4991836;28;19918;-78
2023/07/18 07:01:10;;;;;;;;;;;29.10;60.40;;;;;;5003983;28;20008;-78
2023/07/18 07:03:36;;;;;;;;;;;29.10;61.10;;;;;;4991378;28;20377;-77
2023/07/18 07:06:01;;;;;;;;;;;29.50;60.10;;;;;;4985739;28;19914;-79
2023/07/18 07:08:29;;;;;;;;;;;29.20;60.20;;;;;;4989903;28;19917;-79
2023/07/18 07:11:04;;;;;;;;;;;29.10;59.90;;;;;;4986144;28;19918;-78
2023/07/18 07:13:30;;;;;;;;;;;29.30;59.40;;;;;;4987465;28;20448;-78
2023/07/18 07:15:55;;;;;;;;;;;29.20;57.80;;;;;;4984644;28;19914;-80
2023/07/18 07:18:21;;;;;;;;;;;29.70;56.80;;;;;;4985127;28;20321;-78
2023/07/18 07:20:46;;;;;;;;;;;30.30;56.40;;;;;;4982319;28;19956;-79
2023/07/18 07:23:12;;;;;;;;;;;30.50;56.30;;;;;;4986442;28;19940;-80
2023/07/18 07:25:37;;;;;;;;;;;30.80;55.50;;;;;;4995815;28;19914;-82
2023/07/18 07:28:04;;;;;;;;;;;31.00;55.80;;;;;;4981875;28;19914;-79
2023/07/18 07:30:29;;;;;;;;;;;31.40;54.60;;;;;;4983531;28;19973;-77
2023/07/18 07:32:55;;;;;;;;;;;30.80;55.10;;;;;;4983201;28;20009;-78
2023/07/18 07:35:22;;;;;;;;;;;31.10;53.40;;;;;;4983235;28;19914;-78
2023/07/18 07:37:50;;;;;;;;;;;30.90;53.70;;;;;;4982541;28;19953;-80
2023/07/18 07:40:16;;;;;;;;;;;31.20;54.30;;;;;;4983467;28;19921;-79
2023/07/18 07:42:43;;;;;;;;;;;31.60;55.00;;;;;;4983139;28;19914;-80
2023/07/18 07:45:09;;;;;;;;;;;31.90;53.70;;;;;;4981444;28;19918;-78
2023/07/18 07:47:35;;;;;;;;;;;31.30;53.40;;;;;;4983493;28;19922;-79
2023/07/18 07:50:01;;;;;;;;;;;31.60;53.60;;;;;;4991589;28;19925;-78
2023/07/18 07:52:28;;;;;;;;;;;31.80;52.80;;;;;;5013063;28;20177;-79
2023/07/18 07:54:53;;;;;;;;;;;32.70;52.50;;;;;;5021762;28;19917;-78
2023/07/18 07:57:19;;;;;;;;;;;33.30;52.40;;;;;;5016535;28;19913;-78
2023/07/18 07:59:44;;;;;;;;;;;33.60;50.80;;;;;;5013573;28;19917;-79
2023/07/18 08:02:12;;;;;;;;;;;33.70;50.80;;;;;;5009952;28;19920;-78
2023/07/18 08:04:39;;;;;;;;;;;34.00;50.40;;;;;;5010015;28;20008;-80
2023/07/18 08:07:05;;;;;;;;;;;34.00;49.10;;;;;;5008060;28;19917;-77
2023/07/18 08:09:30;;;;;;;;;;;34.30;49.80;;;;;;5007734;28;20288;-79
2023/07/18 08:11:57;;;;;;;;;;;35.20;48.70;;;;;;5008049;28;19917;-79
2023/07/18 08:14:22;;;;;;;;;;;36.40;47.30;;;;;;5016510;28;19923;-82
2023/07/18 08:16:49;;;;;;;;;;;36.90;46.80;;;;;;5019948;28;19913;-81
2023/07/18 08:19:15;;;;;;;;;;;37.40;47.90;;;;;;5020699;28;19920;-79
2023/07/18 08:21:40;;;;;;;;;;;37.70;46.10;;;;;;5022522;28;19913;-81
2023/07/18 08:24:06;;;;;;;;;;;37.90;45.40;;;;;;5022715;28;20368;-78
2023/07/18 08:26:31;;;;;;;;;;;38.60;46.10;;;;;;5021641;28;19913;-78
2023/07/18 08:28:57;;;;;;;;;;;38.20;45.50;;;;;;5002182;28;19982;-82
2023/07/18 08:31:22;;;;;;;;;;;38.50;45.00;;;;;;5020183;28;19917;-81
2023/07/18 08:33:48;;;;;;;;;;;38.10;44.70;;;;;;5020053;28;20285;-80
2023/07/18 08:36:13;;;;;;;;;;;38.00;43.50;;;;;;5016797;28;19949;-78
2023/07/18 08:38:39;;;;;;;;;;;38.30;45.60;;;;;;5022589;28;19940;-78
2023/07/18 08:41:06;;;;;;;;;;;38.30;44.90;;;;;;5014428;28;20441;-78
2023/07/18 08:43:33;;;;;;;;;;;38.80;45.20;;;;;;5022440;28;20007;-79
2023/07/18 08:45:58;;;;;;;;;;;37.60;46.00;;;;;;5012843;28;19952;-78
2023/07/18 08:48:24;;;;;;;;;;;38.50;46.00;;;;;;5024397;28;20693;-80
2023/07/18 08:50:53;;;;;;;;;;;38.70;44.80;;;;;;5012516;28;19925;-79
2023/07/18 08:53:19;;;;;;;;;;;36.10;48.20;;;;;;5006027;28;19920;-79
2023/07/18 08:55:44;;;;;;;;;;;38.40;44.70;;;;;;5023237;28;19918;-80
2023/07/18 08:58:10;;;;;;;;;;;39.40;43.30;;;;;;5023192;28;19917;-78
2023/07/18 09:00:35;;;;;;;;;;;36.90;46.70;;;;;;5018272;28;19921;-79
2023/07/18 09:03:01;;;;;;;;;;;37.80;48.10;;;;;;5021837;28;20356;-78
2023/07/18 09:05:26;;;;;;;;;;;36.20;49.00;;;;;;5015760;28;19914;-78
2023/07/18 09:07:54;;;;;;;;;;;36.60;49.80;;;;;;5024368;28;19913;-81
2023/07/18 09:10:20;;;;;;;;;;;37.40;51.20;;;;;;5014525;28;19996;-79
2023/07/18 09:12:46;;;;;;;;;;;39.10;47.30;;;;;;5018722;28;19917;-81
2023/07/18 09:15:17;;;;;;;;;;;39.10;47.80;;;;;;5012998;28;19913;-78
2023/07/18 09:17:47;;;;;;;;;;;40.40;47.60;;;;;;5017231;28;19913;-81
2023/07/18 09:20:16;;;;;;;;;;;42.00;45.20;;;;;;5018178;28;19913;-83
2023/07/18 09:22:41;;;;;;;;;;;41.40;43.30;;;;;;5031820;28;19913;-79
2023/07/18 09:25:07;;;;;;;;;;;38.90;47.80;;;;;;5016107;28;19913;-81
2023/07/18 09:27:35;;;;;;;;;;;38.00;48.40;;;;;;5015947;28;19913;-81
2023/07/18 09:30:00;;;;;;;;;;;39.90;46.00;;;;;;5022794;28;19948;-79
2023/07/18 09:32:26;;;;;;;;;;;38.00;45.10;;;;;;5024717;28;19909;-79
2023/07/18 09:34:55;;;;;;;;;;;36.60;47.70;;;;;;5021093;28;19927;-78
2023/07/18 09:37:21;;;;;;;;;;;35.90;50.90;;;;;;5014015;28;19914;-79
2023/07/18 09:39:47;;;;;;;;;;;35.30;50.90;;;;;;5024883;28;19991;-78
2023/07/18 09:42:12;;;;;;;;;;;36.50;50.20;;;;;;5024980;28;20350;-81
2023/07/18 09:44:39;;;;;;;;;;;36.00;49.40;;;;;;5023715;28;19917;-80
2023/07/18 09:47:06;;;;;;;;;;;35.80;50.50;;;;;;5005250;28;20012;-79
2023/07/18 09:49:32;;;;;;;;;;;35.60;51.10;;;;;;5020439;28;19932;-78
2023/07/18 09:52:05;;;;;;;;;;;35.70;49.90;;;;;;5021270;28;19927;-80
2023/07/18 09:54:31;;;;;;;;;;;34.00;53.50;;;;;;5003072;28;19961;-79
2023/07/18 09:57:03;;;;;;;;;;;33.30;54.90;;;;;;5023505;28;19921;-79
2023/07/18 09:59:29;;;;;;;;;;;33.30;56.20;;;;;;5019713;28;19913;-79
2023/07/18 10:01:55;;;;;;;;;;;33.90;54.90;;;;;;5018016;28;19959;-78
2023/07/18 10:04:21;;;;;;;;;;;36.00;52.60;;;;;;5014639;28;19964;-79
2023/07/18 10:06:47;;;;;;;;;;;35.00;52.60;;;;;;5021385;28;19951;-78
2023/07/18 10:09:13;;;;;;;;;;;36.60;52.60;;;;;;5013341;28;19913;-82
2023/07/18 10:11:57;;;;;;;;;;;38.50;48.70;;;;;;5013217;28;19976;-79
2023/07/18 10:14:22;;;;;;;;;;;38.70;47.80;;;;;;5017864;28;20032;-81
2023/07/18 10:16:53;;;;;;;;;;;39.70;47.30;;;;;;4995564;28;19920;-81
2023/07/18 10:19:22;;;;;;;;;;;39.60;46.60;;;;;;4998029;28;19913;-79
2023/07/18 10:21:50;;;;;;;;;;;39.90;41.30;;;;;;5024073;28;20026;-80
2023/07/18 10:24:24;;;;;;;;;;;39.60;44.50;;;;;;5023707;28;19913;-78
2023/07/18 10:27:07;;;;;;;;;;;36.80;44.90;;;;;;5023337;28;19923;-78
2023/07/18 10:29:37;;;;;;;;;;;35.60;50.30;;;;;;5023856;28;19921;-82
2023/07/18 10:32:03;;;;;;;;;;;36.30;50.40;;;;;;5021759;28;20000;-82
2023/07/18 10:34:28;;;;;;;;;;;37.00;48.10;;;;;;5022917;28;20667;-77
2023/07/18 10:36:54;;;;;;;;;;;39.00;48.40;;;;;;5018589;28;19917;-79
2023/07/18 10:39:34;;;;;;;;;;;41.20;45.40;;;;;;5020906;28;20395;-78
2023/07/18 10:42:05;;;;;;;;;;;38.40;47.20;;;;;;5019776;28;20400;-78
2023/07/18 10:44:32;;;;;;;;;;;36.10;50.90;;;;;;5019520;28;19924;-78
2023/07/18 10:46:57;;;;;;;;;;;37.70;49.20;;;;;;5022042;28;19921;-82
2023/07/18 10:49:26;;;;;;;;;;;37.50;49.70;;;;;;5022135;28;19928;-80
2023/07/18 10:51:55;;;;;;;;;;;35.80;51.40;;;;;;5022215;28;19928;-79
2023/07/18 10:54:20;;;;;;;;;;;34.80;53.50;;;;;;5020948;28;20007;-81
2023/07/18 10:56:48;;;;;;;;;;;34.70;54.60;;;;;;5020895;28;20004;-78
2023/07/18 10:59:14;;;;;;;;;;;35.50;55.00;;;;;;5020981;28;20000;-80
2023/07/18 11:01:40;;;;;;;;;;;36.00;53.00;;;;;;5018445;28;19916;-78
2023/07/18 11:04:06;;;;;;;;;;;35.60;55.90;;;;;;5016321;28;20343;-80
2023/07/18 11:06:31;;;;;;;;;;;34.70;53.60;;;;;;5016487;28;19951;-78
2023/07/18 11:08:57;;;;;;;;;;;33.40;53.50;;;;;;5020265;28;20003;-82
2023/07/18 11:11:22;;;;;;;;;;;33.40;55.70;;;;;;5014729;28;19921;-82
2023/07/18 11:13:48;;;;;;;;;;;33.60;55.50;;;;;;5016935;28;20000;-80
2023/07/18 11:16:14;;;;;;;;;;;34.10;56.00;;;;;;5015894;28;19997;-78
2023/07/18 11:18:49;;;;;;;;;;;34.40;56.60;;;;;;5022543;28;20345;-79
2023/07/18 11:21:18;;;;;;;;;;;34.80;56.30;;;;;;5004344;28;19913;-79
2023/07/18 11:23:44;;;;;;;;;;;34.70;54.00;;;;;;5020982;28;20470;-79
2023/07/18 11:26:14;;;;;;;;;;;34.50;54.10;;;;;;5022648;28;19913;-79
2023/07/18 11:28:40;;;;;;;;;;;34.50;54.70;;;;;;4992375;28;19913;-77
2023/07/18 11:31:18;;;;;;;;;;;34.30;52.40;;;;;;5022479;28;19917;-78
2023/07/18 11:33:47;;;;;;;;;;;34.40;54.80;;;;;;5020767;28;19913;-80
2023/07/18 11:36:13;;;;;;;;;;;34.70;53.70;;;;;;5021514;28;20489;-82
2023/07/18 11:38:38;;;;;;;;;;;34.90;56.00;;;;;;5019771;28;19956;-79
2023/07/18 11:41:05;;;;;;;;;;;34.40;54.90;;;;;;5022882;28;19918;-79
2023/07/18 11:43:31;;;;;;;;;;;34.10;53.80;;;;;;5021233;28;20674;-80
2023/07/18 11:45:56;;;;;;;;;;;33.80;55.70;;;;;;5021884;28;19917;-78
2023/07/18 11:48:22;;;;;;;;;;;33.80;53.20;;;;;;5018392;28;19953;-80
2023/07/18 11:50:48;;;;;;;;;;;33.50;53.40;;;;;;5022348;28;20550;-83
2023/07/18 11:53:24;;;;;;;;;;;33.60;54.40;;;;;;5000305;28;19913;-79
2023/07/18 11:55:49;;;;;;;;;;;33.80;55.90;;;;;;5015257;28;19909;-78
2023/07/18 11:58:15;;;;;;;;;;;33.50;56.90;;;;;;5019173;28;19920;-79
2023/07/18 12:00:41;;;;;;;;;;;33.50;56.70;;;;;;5022862;28;19913;-80
2023/07/18 12:03:06;;;;;;;;;;;33.10;57.80;;;;;;5018279;28;19921;-78
2023/07/18 12:05:32;;;;;;;;;;;33.20;57.20;;;;;;5021942;28;19913;-80
2023/07/18 12:07:57;;;;;;;;;;;33.30;58.30;;;;;;4993634;28;19920;-84
2023/07/18 12:10:23;;;;;;;;;;;33.60;54.70;;;;;;4998152;28;19929;-80
2023/07/18 12:12:48;;;;;;;;;;;33.80;54.40;;;;;;5010079;28;19914;-79
2023/07/18 12:15:14;;;;;;;;;;;33.90;55.50;;;;;;5015617;28;19933;-78
2023/07/18 12:17:40;;;;;;;;;;;34.10;54.70;;;;;;5012581;28;19914;-78
2023/07/18 12:20:06;;;;;;;;;;;34.10;57.10;;;;;;5015343;28;20024;-81
2023/07/18 12:22:32;;;;;;;;;;;34.20;55.70;;;;;;5001525;28;19913;-78
2023/07/18 12:24:57;;;;;;;;;;;34.00;53.80;;;;;;5017617;28;20295;-83
2023/07/18 12:27:23;;;;;;;;;;;34.20;54.90;;;;;;5005503;28;19914;-78
2023/07/18 12:29:49;;;;;;;;;;;34.00;54.10;;;;;;5007843;28;19920;-80
2023/07/18 12:32:14;;;;;;;;;;;33.90;57.30;;;;;;5024922;28;19913;-78
2023/07/18 12:34:40;;;;;;;;;;;33.80;51.80;;;;;;5024596;28;20661;-78
2023/07/18 12:37:07;;;;;;;;;;;33.90;54.70;;;;;;5023937;28;19913;-78
2023/07/18 12:39:33;;;;;;;;;;;33.90;53.60;;;;;;5025391;28;19913;-79
2023/07/18 12:41:59;;;;;;;;;;;33.80;55.30;;;;;;5024922;28;20291;-82
2023/07/18 12:44:36;;;;;;;;;;;33.80;55.60;;;;;;5023924;28;19920;-79
2023/07/18 12:47:01;;;;;;;;;;;33.50;56.10;;;;;;5025092;28;20399;-78
2023/07/18 12:49:27;;;;;;;;;;;33.40;57.20;;;;;;5021967;28;19917;-80
2023/07/18 12:51:53;;;;;;;;;;;33.70;57.50;;;;;;5021807;28;20389;-82
2023/07/18 12:54:18;;;;;;;;;;;33.90;59.30;;;;;;5020649;28;19913;-79
2023/07/18 12:56:44;;;;;;;;;;;33.80;57.00;;;;;;5022440;28;20396;-79
2023/07/18 12:59:10;;;;;;;;;;;33.70;56.90;;;;;;5023919;28;19913;-78
2023/07/18 13:01:36;;;;;;;;;;;33.00;57.10;;;;;;5018805;28;19923;-80
2023/07/18 13:04:02;;;;;;;;;;;32.80;57.50;;;;;;5024113;28;19913;-78
2023/07/18 13:06:27;;;;;;;;;;;32.50;59.30;;;;;;5014209;28;19921;-81
2023/07/18 13:08:53;;;;;;;;;;;32.50;59.60;;;;;;5017977;28;19913;-79
2023/07/18 13:11:19;;;;;;;;;;;32.60;60.00;;;;;;5013307;28;20377;-79
2023/07/18 13:13:46;;;;;;;;;;;32.20;60.00;;;;;;5018035;28;20075;-78
2023/07/18 13:16:11;;;;;;;;;;;32.20;58.90;;;;;;5011188;28;19996;-78
2023/07/18 13:18:37;;;;;;;;;;;32.10;59.20;;;;;;5015151;28;20015;-79
2023/07/18 13:21:03;;;;;;;;;;;32.50;60.80;;;;;;5025531;28;19913;-80
2023/07/18 13:23:29;;;;;;;;;;;32.70;58.20;;;;;;5027078;28;19916;-79
2023/07/18 13:25:55;;;;;;;;;;;32.40;58.60;;;;;;5023844;28;20681;-79
2023/07/18 13:28:21;;;;;;;;;;;32.50;58.90;;;;;;5013792;28;19920;-80
2023/07/18 13:30:46;;;;;;;;;;;32.70;59.80;;;;;;5024826;28;19917;-78
2023/07/18 13:33:12;;;;;;;;;;;32.70;60.60;;;;;;5023900;28;19917;-79
2023/07/18 13:35:37;;;;;;;;;;;32.40;57.90;;;;;;5023596;28;19913;-83
2023/07/18 13:38:03;;;;;;;;;;;32.50;59.50;;;;;;5023582;28;19929;-78
2023/07/18 13:40:29;;;;;;;;;;;32.60;56.70;;;;;;5024321;28;19952;-81
2023/07/18 13:42:54;;;;;;;;;;;32.90;57.40;;;;;;5023995;28;20291;-80
2023/07/18 13:45:20;;;;;;;;;;;32.80;57.50;;;;;;5023355;28;20729;-78
2023/07/18 13:47:45;;;;;;;;;;;33.10;55.90;;;;;;5024321;28;19917;-79
2023/07/18 13:50:11;;;;;;;;;;;33.50;56.20;;;;;;5020270;28;20384;-82
2023/07/18 13:52:36;;;;;;;;;;;33.40;57.40;;;;;;5021596;28;20690;-78
2023/07/18 13:55:02;;;;;;;;;;;33.00;58.20;;;;;;5018033;28;19913;-80
2023/07/18 13:57:28;;;;;;;;;;;32.70;54.60;;;;;;5020641;28;20051;-80
2023/07/18 13:59:53;;;;;;;;;;;32.50;56.10;;;;;;5018669;28;20388;-78
2023/07/18 14:02:19;;;;;;;;;;;32.20;56.80;;;;;;5000695;28;19913;-78
2023/07/18 14:04:45;;;;;;;;;;;32.30;59.70;;;;;;5013190;28;19917;-77
2023/07/18 14:07:10;;;;;;;;;;;32.00;59.80;;;;;;5023877;28;19913;-78
2023/07/18 14:09:36;;;;;;;;;;;31.90;59.90;;;;;;5010593;28;19925;-79
2023/07/18 14:12:01;;;;;;;;;;;31.90;61.50;;;;;;5014747;28;19917;-78